Grand Strand Airport
KCRE : now visible

Airfield :











YOU CAN JOIN US ON...

 
LOGIN :

Register | Disclaimer

   EN    FR    IT 

 









Legend :    VFR   Marginal VFR   IFR   Intensive IFR   Very Intensive IFR
Visi :
Ceiling :
>= 8 km
>= 3000ft
5 to 8 km
1000 to 3000 ft
1500m to 5 km
500 to 1000 ft
800 to 1500m
200 to 500 ft
< 800m
< 200 ft
Symbols :   Thunderstorms  Fog  Heavy snow  Heavy precipitations  Wind > 20 kt






- Airport Elevation : 32 ft


KCRE - Grand Strand

CURRENT METAR :
  • 071953Z 20012KT 10SM CLR 24/18 A2991 RMK AO1 SLP128 T02440183

EXPIRED METARs :
  • 071853Z 20009KT 10SM CLR 25/18 A2994 RMK AO1 SLP140 T02500178
  • 071753Z 20007KT 10SM CLR 26/18 A2997 RMK AO1 SLP149 T02560178 10261 20194 58020

TAF KCRE
Valid from the 07 at 18:00 until the 08 at 18:00 UTC


071720Z 0718/0818 21009KT P6SM SCT200
FM072000 22010G17KT P6SM FEW150
FM080000 22009KT P6SM BKN120
FM080200 23010G17KT P6SM BKN120



MET'MAP, your aeronautical weather chart ! - Copyright ORBIFLY December 2007 - Disclaimer

ORBIFLY MET'MAP TEAM :

Programming & Development : Alexandra Zaïnal
Concept & original design : Baudouin d'Aumeries
Assistance for programming : Marc-Olivier Méhu
Technical & hardware support : Manuel Goepfert

Contact : metmap@orbifly.com




SOURCES & CREDITS :

   NOAA       Earth
Advisory